Time;durP1;ratioP1;P1;durP2;ratioP2;P2;SDS_P1;SDS_P2;PMS_P1;PMS_P2;Temp;Humidity;BMP_temperature;BMP_pressure;BME280_temperature;BME280_humidity;BME280_pressure;Samples;Min_cycle;Max_cycle;Signal;HPM_P1;HPM_P2
2023/10/16 00:01:17;;;;;;;8.82;6.07;;;;;;;22.50;100.00;100765.81;143722;735;47002;-70
2023/10/16 00:03:43;;;;;;;7.93;5.68;;;;;;;22.48;100.00;100767.19;143719;703;47010;-68
2023/10/16 00:06:14;;;;;;;11.45;6.18;;;;;;;22.48;100.00;100759.78;143721;629;47013;-69
2023/10/16 00:08:53;;;;;;;10.52;6.07;;;;;;;22.50;100.00;100765.81;143725;606;47006;-68
2023/10/16 00:11:23;;;;;;;10.43;5.37;;;;;;;22.44;100.00;100764.19;143721;574;47002;-69
2023/10/16 00:13:50;;;;;;;8.63;6.20;;;;;;;22.40;100.00;100776.78;143721;691;47009;-68
2023/10/16 00:16:18;;;;;;;11.75;6.03;;;;;;;22.39;100.00;100775.94;143724;590;46008;-68
2023/10/16 00:18:50;;;;;;;11.05;6.15;;;;;;;22.43;100.00;100764.47;143724;575;46006;-68
2023/10/16 00:21:19;;;;;;;10.02;6.03;;;;;;;22.37;100.00;100763.63;143722;598;47004;-67
2023/10/16 00:23:46;;;;;;;10.73;7.15;;;;;;;22.38;100.00;100760.59;143720;616;47011;-68
2023/10/16 00:26:19;;;;;;;9.00;5.50;;;;;;;22.42;100.00;100769.09;143720;637;47004;-68
2023/10/16 00:28:46;;;;;;;10.52;6.65;;;;;;;22.43;100.00;100764.47;143722;607;47006;-69
2023/10/16 00:31:20;;;;;;;9.63;6.32;;;;;;;22.35;100.00;100761.16;143722;721;47002;-67
2023/10/16 00:33:49;;;;;;;11.77;6.55;;;;;;;22.37;100.00;100766.37;143723;619;47010;-68
2023/10/16 00:36:16;;;;;;;8.70;6.32;;;;;;;22.38;100.00;100768.81;143721;567;47004;-68
2023/10/16 00:38:47;;;;;;;14.57;6.93;;;;;;;22.31;100.00;100756.53;143723;572;47006;-68
2023/10/16 00:41:17;;;;;;;15.10;7.68;;;;;;;22.32;100.00;100763.63;143725;615;47006;-68
2023/10/16 00:43:44;;;;;;;17.40;8.82;;;;;;;22.23;100.00;100746.97;143721;582;47010;-68
2023/10/16 00:46:24;;;;;;;11.30;7.65;;;;;;;22.21;100.00;100741.78;143721;594;47004;-68
2023/10/16 00:48:51;;;;;;;15.02;8.85;;;;;;;22.19;100.00;100743.97;143722;631;47006;-68
2023/10/16 00:51:18;;;;;;;13.52;8.57;;;;;;;22.24;100.00;100733.00;143724;663;47004;-68
2023/10/16 00:53:45;;;;;;;15.15;9.00;;;;;;;22.24;100.00;100733.00;143723;601;47011;-68
2023/10/16 00:56:14;;;;;;;13.15;8.90;;;;;;;22.21;100.00;100739.03;143722;575;47004;-67
2023/10/16 00:58:45;;;;;;;14.23;8.02;;;;;;;22.15;100.00;100748.34;143720;589;46007;-68
2023/10/16 03:02:40;;;;;;;20.67;7.05;;;;;;;21.66;100.00;100760.66;143722;573;47004;-68
2023/10/16 03:05:11;;;;;;;14.18;6.30;;;;;;;21.66;100.00;100763.41;143723;630;46007;-68
2023/10/16 03:07:44;;;;;;;14.82;7.37;;;;;;;21.64;100.00;100757.38;143720;753;50000;-68
2023/10/16 03:10:10;;;;;;;16.53;8.27;;;;;;;21.65;100.00;100751.66;143719;602;47010;-68
2023/10/16 03:12:37;;;;;;;13.88;6.45;;;;;;;21.56;100.00;100755.97;143722;662;47004;-69
2023/10/16 03:15:14;;;;;;;20.67;7.50;;;;;;;21.53;100.00;100755.72;143722;584;47010;-67
2023/10/16 03:17:41;;;;;;;14.27;6.72;;;;;;;21.54;100.00;100760.88;143723;568;47002;-68
2023/10/16 03:22:59;;;;;;;17.37;6.35;;;;;;;21.58;100.00;100759.25;143720;607;47004;-68
2023/10/16 03:25:30;;;;;;;10.75;5.78;;;;;;;21.60;100.00;100762.56;143723;600;47006;-68
2023/10/16 03:27:57;;;;;;;14.80;6.32;;;;;;;21.58;100.00;100756.53;143722;567;47002;-68
2023/10/16 03:30:30;;;;;;;14.02;6.47;;;;;;;21.53;100.00;100756.53;143722;651;47010;-69
2023/10/16 03:32:58;;;;;;;11.57;5.95;;;;;;;21.52;100.00;100746.72;143722;576;47004;-68
2023/10/16 03:35:30;;;;;;;13.13;6.85;;;;;;;21.49;100.00;100758.97;143722;700;47006;-67
2023/10/16 03:37:56;;;;;;;20.08;7.12;;;;;;;21.51;100.00;100753.25;143723;594;47004;-68
2023/10/16 03:40:27;;;;;;;12.63;6.35;;;;;;;21.53;100.00;100748.34;143724;576;47008;-67
2023/10/16 03:42:54;;;;;;;14.95;6.75;;;;;;;21.50;100.00;100757.09;143722;586;47004;-67
2023/10/16 03:45:21;;;;;;;13.77;6.55;;;;;;;21.47;100.00;100752.97;143724;567;46006;-68
2023/10/16 03:47:51;;;;;;;18.35;7.37;;;;;;;21.47;100.00;100754.88;143723;635;47002;-67
2023/10/16 03:53:13;;;;;;;14.77;6.30;;;;;;;21.45;100.00;100763.34;143723;698;46025;-68
2023/10/16 03:55:44;;;;;;;12.23;6.50;;;;;;;21.41;100.00;100765.00;143723;580;46006;-68
2023/10/16 03:58:14;;;;;;;15.88;6.47;;;;;;;21.44;100.00;100772.66;143720;589;50000;-69
2023/10/16 04:00:53;;;;;;;12.13;6.32;;;;;;;21.48;100.00;100765.53;143724;578;47008;-67
2023/10/16 04:03:21;;;;;;;13.88;6.47;;;;;;;21.43;100.00;100770.16;143719;582;47004;-68
2023/10/16 04:05:49;;;;;;;11.00;6.43;;;;;;;21.43;100.00;100765.53;143725;599;46006;-67
2023/10/16 04:08:18;;;;;;;24.37;6.97;;;;;;;21.43;100.00;100767.44;143722;576;47002;-69
2023/10/16 04:10:46;;;;;;;13.40;6.60;;;;;;;21.43;100.00;100765.53;143726;684;46010;-68
2023/10/16 04:13:14;;;;;;;22.85;6.87;;;;;;;21.45;100.00;100773.47;143722;587;47003;-67
2023/10/16 04:23:55;;;;;;;28.75;8.35;;;;;;;21.28;100.00;100779.97;143724;577;47008;-67
2023/10/16 04:26:35;;;;;;;21.67;7.70;;;;;;;21.32;100.00;100783.00;143727;620;46006;-67
2023/10/16 04:32:19;;;;;;;19.98;8.40;;;;;;;21.27;100.00;100797.47;143723;577;47010;-68
2023/10/16 04:34:52;;;;;;;24.92;8.73;;;;;;;21.24;100.00;100802.66;143721;573;47004;-67
2023/10/16 04:37:36;;;;;;;27.35;8.40;;;;;;;21.23;100.00;100801.00;143726;576;46006;-68
2023/10/16 04:48:23;;;;;;;30.05;8.38;;;;;;;21.16;100.00;100804.81;143722;598;47000;-67
2023/10/16 04:51:09;;;;;;;24.83;9.02;;;;;;;21.19;100.00;100812.47;143723;592;47002;-67
2023/10/16 04:53:48;;;;;;;25.90;8.32;;;;;;;21.22;100.00;100813.81;143724;600;47010;-67
2023/10/16 04:56:30;;;;;;;24.52;8.25;;;;;;;21.29;100.00;100811.69;143721;578;47004;-68
2023/10/16 04:59:11;;;;;;;30.58;8.18;;;;;;;21.42;100.00;100823.19;143722;574;46007;-67
2023/10/16 05:02:06;;;;;;;23.27;7.97;;;;;;;21.42;100.00;100824.00;143724;589;47004;-68
2023/10/16 05:07:18;;;;;;;16.48;7.20;;;;;;;21.46;100.00;100835.22;143722;660;47009;-67
2023/10/16 05:15:37;;;;;;;25.05;8.15;;;;;;;21.67;100.00;100857.16;143717;654;47008;-69
2023/10/16 05:18:12;;;;;;;22.13;8.80;;;;;;;21.68;100.00;100864.28;143715;668;47004;-68
2023/10/16 06:15:26;;;;;;;16.45;7.05;;;;;;;23.70;100.00;100991.72;143714;569;47006;-67
2023/10/16 06:17:52;;;;;;;18.85;6.80;;;;;;;23.84;100.00;100980.97;143724;578;47004;-66
2023/10/16 06:20:21;;;;;;;22.75;6.97;;;;;;;23.98;100.00;100983.13;143718;632;47010;-68
2023/10/16 06:22:51;;;;;;;19.67;7.50;;;;;;;24.13;100.00;100996.75;143715;594;47008;-67
2023/10/16 06:25:19;;;;;;;14.18;6.22;;;;;;;24.30;100.00;100995.53;143718;650;47006;-69
2023/10/16 06:27:47;;;;;;;14.30;6.55;;;;;;;24.42;100.00;100995.19;143721;601;47007;-68
2023/10/16 06:30:18;;;;;;;17.37;7.37;;;;;;;24.54;100.00;100998.38;143715;591;47010;-67
2023/10/16 06:32:49;;;;;;;19.45;7.10;;;;;;;24.68;100.00;100993.91;143723;590;47002;-66
2023/10/16 06:35:16;;;;;;;19.90;6.65;;;;;;;24.80;100.00;100996.28;143719;586;47010;-66
2023/10/16 06:37:51;;;;;;;14.68;6.70;;;;;;;24.88;100.00;101005.00;143722;599;47004;-68
2023/10/16 06:40:24;;;;;;;17.05;6.12;;;;;;;25.00;100.00;100999.94;143714;642;47010;-67
2023/10/16 06:42:54;;;;;;;15.80;7.05;;;;;;;25.11;100.00;101012.50;143719;567;47009;-67
2023/10/16 06:45:40;;;;;;;21.33;14.38;;;;;;;25.19;100.00;101019.28;143718;581;47014;-69
2023/10/16 06:48:15;;;;;;;20.77;10.18;;;;;;;25.28;100.00;101025.78;143722;608;47000;-71
2023/10/16 06:50:53;;;;;;;33.35;16.02;;;;;;;25.41;100.00;101024.28;143713;573;47008;-70
2023/10/16 06:53:25;;;;;;;14.38;6.97;;;;;;;25.45;100.00;101032.78;143719;575;47008;-70
2023/10/16 06:55:51;;;;;;;12.25;6.85;;;;;;;25.43;100.00;101043.25;143717;592;47006;-71
2023/10/16 06:58:20;;;;;;;20.60;9.65;;;;;;;25.48;100.00;101045.16;143720;573;47010;-70
2023/10/16 07:00:47;;;;;;;21.10;7.50;;;;;;;25.55;100.00;101051.09;143713;607;47010;-71
2023/10/16 07:03:13;;;;;;;19.20;8.30;;;;;;;25.56;100.00;101053.59;143716;573;46024;-71
2023/10/16 07:05:43;;;;;;;23.15;7.43;;;;;;;25.55;100.00;101057.44;143719;584;47007;-71
2023/10/16 07:08:16;;;;;;;16.73;6.87;;;;;;;25.55;100.00;101056.59;143722;631;47010;-71
2023/10/16 07:10:49;;;;;;;13.85;7.47;;;;;;;25.55;100.00;101056.59;143720;627;47008;-72
2023/10/16 07:13:26;;;;;;;14.43;6.53;;;;;;;25.54;100.00;101066.81;143722;596;47012;-72
2023/10/16 07:16:00;;;;;;;30.55;8.38;;;;;;;25.57;100.00;101071.72;143720;589;47010;-71
2023/10/16 07:18:28;;;;;;;21.90;7.40;;;;;;;25.67;100.00;101078.22;143719;588;47004;-71
2023/10/16 07:21:06;;;;;;;14.57;7.03;;;;;;;25.69;100.00;101084.25;143722;583;47008;-73
2023/10/16 07:23:34;;;;;;;16.67;7.45;;;;;;;25.66;100.00;101093.06;143717;602;47008;-70
2023/10/16 07:26:02;;;;;;;15.15;7.80;;;;;;;25.75;100.00;101102.34;143717;588;47006;-70
2023/10/16 07:28:29;;;;;;;18.12;7.20;;;;;;;25.91;100.00;101102.16;143722;611;47010;-70
2023/10/16 07:30:57;;;;;;;24.15;7.53;;;;;;;26.05;100.00;101103.09;143719;600;47010;-70
2023/10/16 07:33:25;;;;;;;15.35;7.20;;;;;;;26.21;100.00;101106.47;143722;589;47004;-68
2023/10/16 07:35:57;;;;;;;16.08;6.95;;;;;;;26.37;100.00;101112.59;143726;570;46006;-67
2023/10/16 07:38:29;;;;;;;15.57;7.95;;;;;;;26.48;100.00;101113.28;143733;626;46002;-71
2023/10/16 07:41:00;;;;;;;17.60;6.95;;;;;;;26.65;100.00;101121.03;143720;573;47028;-70
2023/10/16 07:43:28;;;;;;;10.32;6.40;;;;;;;26.75;100.00;101118.13;143719;608;47008;-72
2023/10/16 07:49:09;;;;;;;12.45;6.57;;;;;;;26.97;100.00;101118.66;143722;573;47006;-71
2023/10/16 07:51:36;;;;;;;13.35;6.65;;;;;;;27.15;100.00;101115.03;143722;639;47008;-70
2023/10/16 07:54:06;;;;;;;13.48;7.22;;;;;;;27.30;100.00;101110.38;143721;597;47004;-70
2023/10/16 07:56:33;;;;;;;15.18;7.03;;;;;;;27.47;100.00;101109.84;143713;702;47006;-70
2023/10/16 07:59:07;;;;;;;15.13;7.60;;;;;;;27.37;100.00;101108.06;143719;591;47002;-70
2023/10/16 08:01:41;;;;;;;;;;;;;;;27.33;100.00;101116.13;143720;982;48002;-70
2023/10/16 08:07:17;;;;;;;14.98;6.47;;;;;;;27.22;100.00;101115.47;143718;712;47006;-71
2023/10/16 08:12:35;;;;;;;17.35;7.07;;;;;;;27.27;100.00;101105.50;143719;677;48002;-69
2023/10/16 08:15:14;;;;;;;13.52;6.87;;;;;;;27.31;100.00;101104.56;143718;568;47004;-71
2023/10/16 08:17:43;;;;;;;16.65;7.62;;;;;;;27.47;100.00;101112.59;143715;667;47006;-71
2023/10/16 08:20:17;;;;;;;14.18;6.82;;;;;;;27.46;100.00;101109.00;143721;567;47010;-70
2023/10/16 08:22:48;;;;;;;17.55;7.45;;;;;;;27.47;100.00;101113.41;143713;617;47008;-69
2023/10/16 08:25:32;;;;;;;16.58;8.25;;;;;;;27.52;100.00;101115.28;143712;566;47008;-70
2023/10/16 08:28:18;;;;;;;14.05;7.47;;;;;;;27.64;100.00;101112.00;143718;577;47006;-69
2023/10/16 08:30:52;;;;;;;18.23;7.12;;;;;;;27.63;100.00;101111.19;143722;719;47004;-68
2023/10/16 08:33:28;;;;;;;19.95;8.48;;;;;;;27.69;100.00;101112.72;143717;606;47010;-69
2023/10/16 08:35:58;;;;;;;12.52;7.30;;;;;;;27.35;100.00;101102.84;143719;569;47012;-69
2023/10/16 08:38:31;;;;;;;14.40;6.60;;;;;;;27.11;100.00;101110.44;143716;624;47006;-70
2023/10/16 08:41:07;;;;;;;14.87;6.67;;;;;;;27.16;100.00;101113.12;143720;684;47004;-69
2023/10/16 08:46:30;;;;;;;13.88;6.62;;;;;;;27.59;100.00;101106.59;143719;671;47008;-70
2023/10/16 08:48:58;;;;;;;10.13;6.78;;;;;;;28.04;100.00;101115.06;143718;569;48000;-69
2023/10/16 08:51:28;;;;;;;12.75;6.80;;;;;;;28.47;100.00;101116.66;143723;688;47004;-69
2023/10/16 08:53:59;;;;;;;14.65;6.47;;;;;;;28.61;100.00;101124.94;143714;614;48004;-67
2023/10/16 08:56:25;;;;;;;12.05;6.12;;;;;;;28.32;100.00;101133.59;143719;670;47009;-69
2023/10/16 08:58:55;;;;;;;10.45;5.87;;;;;;;27.69;100.00;101134.81;143719;572;47006;-69
2023/10/16 09:01:26;;;;;;;13.62;6.50;;;;;;;27.39;100.00;101141.66;143709;566;49000;-68
2023/10/16 09:04:06;;;;;;;16.62;6.10;;;;;;;27.30;100.00;101127.75;143714;610;47022;-69
2023/10/16 09:06:38;;;;;;;17.73;6.53;;;;;;;28.33;100.00;101124.16;143713;642;47008;-68
2023/10/16 09:09:16;;;;;;;15.07;6.32;;;;;;;28.17;100.00;101131.97;143717;572;47006;-68
2023/10/16 09:11:47;;;;;;;10.50;6.68;;;;;;;28.32;100.00;101144.63;143716;598;47007;-68
2023/10/16 09:14:17;;;;;;;11.82;7.07;;;;;;;27.97;100.00;101140.34;143716;572;47010;-70
2023/10/16 09:17:02;;;;;;;16.77;6.80;;;;;;;28.36;100.00;101149.22;143719;568;48004;-68
2023/10/16 09:19:33;;;;;;;11.65;6.72;;;;;;;29.00;100.00;101109.66;143718;691;47007;-70
2023/10/16 09:22:04;;;;;;;16.75;6.85;;;;;;;29.03;100.00;101114.53;143723;580;47010;-70
2023/10/16 09:24:33;;;;;;;18.27;7.28;;;;;;;30.72;99.17;101117.63;143713;579;47010;-70
2023/10/16 09:27:16;;;;;;;11.45;7.53;;;;;;;32.46;89.02;101106.25;143715;623;47008;-69
2023/10/16 09:29:53;;;;;;;9.63;5.47;;;;;;;32.03;87.47;101144.25;143717;598;47006;-70
2023/10/16 09:32:48;;;;;;;9.77;5.62;;;;;;;30.29;97.29;101152.47;143717;605;48004;-71
2023/10/16 09:35:26;;;;;;;17.40;9.93;;;;;;;30.36;100.00;101150.00;143709;602;48008;-71
2023/10/16 09:37:53;;;;;;;10.73;6.68;;;;;;;30.30;99.54;101159.63;143720;609;47011;-71
2023/10/16 09:40:37;;;;;;;20.55;12.32;;;;;;;30.31;100.00;101155.72;143716;590;47004;-69
2023/10/16 09:43:08;;;;;;;12.13;6.10;;;;;;;30.51;96.84;101157.06;143717;567;47006;-70
2023/10/16 09:45:36;;;;;;;9.57;5.47;;;;;;;30.12;98.10;101155.19;143718;585;47010;-69
2023/10/16 09:48:08;;;;;;;11.98;6.75;;;;;;;30.36;96.26;101144.47;143717;593;47004;-70
2023/10/16 09:50:37;;;;;;;12.35;6.28;;;;;;;30.63;95.86;101142.59;143707;607;49006;-69
2023/10/16 09:53:06;;;;;;;10.20;6.00;;;;;;;30.44;96.76;101148.41;143724;580;47002;-69
2023/10/16 09:55:38;;;;;;;12.32;6.78;;;;;;;30.24;97.46;101147.88;143716;579;48008;-69
2023/10/16 09:58:06;;;;;;;17.87;6.10;;;;;;;29.62;94.11;101135.75;143718;590;47004;-69
2023/10/16 10:00:33;;;;;;;14.52;6.80;;;;;;;29.89;97.33;101144.16;143717;577;47006;-70
2023/10/16 10:03:06;;;;;;;14.77;6.57;;;;;;;30.14;88.09;101139.88;143721;585;47004;-69
2023/10/16 10:06:12;;;;;;;16.93;7.30;;;;;;;30.44;89.76;101144.81;143718;589;47008;-69
2023/10/16 10:15:05;;;;;;;12.40;7.82;;;;;;;30.44;90.37;101147.59;143723;580;47006;-70
2023/10/16 10:17:34;;;;;;;12.27;6.25;;;;;;;30.40;90.69;101142.69;143715;608;47994;-69
2023/10/16 10:20:08;;;;;;;12.85;10.60;;;;;;;30.49;93.00;101144.66;143720;582;47008;-69
2023/10/16 10:22:36;;;;;;;12.18;10.63;;;;;;;30.64;91.35;101146.16;143717;625;47006;-70
2023/10/16 10:25:16;;;;;;;12.60;6.32;;;;;;;30.48;87.44;101149.37;143720;582;48000;-71
2023/10/16 10:27:44;;;;;;;12.57;6.18;;;;;;;30.44;86.59;101153.97;143712;683;48008;-67
2023/10/16 10:30:17;;;;;;;15.68;10.25;;;;;;;30.47;87.75;101155.25;143721;580;47008;-70
2023/10/16 10:32:59;;;;;;;15.97;7.70;;;;;;;30.74;85.35;101151.41;143725;603;47006;-69
2023/10/16 10:35:28;;;;;;;15.02;10.85;;;;;;;30.95;88.18;101137.69;143728;584;47004;-70
2023/10/16 10:38:26;;;;;;;16.48;12.55;;;;;;;31.08;87.24;101154.47;143726;598;47002;-69
2023/10/16 10:41:24;;;;;;;10.98;6.37;;;;;;;30.97;86.32;101148.47;143728;593;46004;-69
2023/10/16 10:44:08;;;;;;;12.18;6.15;;;;;;;30.66;79.36;101152.19;143716;590;48006;-68
2023/10/16 10:46:49;;;;;;;10.70;6.13;;;;;;;30.09;82.15;101157.47;143728;577;46010;-69
2023/10/16 10:49:30;;;;;;;21.17;13.60;;;;;;;30.13;87.08;101154.84;143722;756;46011;-68
2023/10/16 10:51:56;;;;;;;21.10;7.28;;;;;;;29.74;86.48;101154.53;143721;573;46008;-68
2023/10/16 10:54:25;;;;;;;12.35;6.32;;;;;;;29.65;87.96;101162.78;143726;695;46006;-69
2023/10/16 10:56:53;;;;;;;18.40;11.10;;;;;;;29.94;91.25;101157.88;143728;576;46004;-68
2023/10/16 10:59:41;;;;;;;10.75;6.28;;;;;;;29.84;90.88;101158.13;143724;604;47010;-68
2023/10/16 11:02:22;;;;;;;12.00;6.45;;;;;;;29.47;89.86;101159.13;143724;652;46013;-68
2023/10/16 11:04:54;;;;;;;17.83;6.93;;;;;;;29.56;93.17;101158.34;143723;615;46922;-68
2023/10/16 11:10:27;;;;;;;13.85;7.87;;;;;;;29.86;92.52;101159.47;143726;668;46008;-69
2023/10/16 11:13:05;;;;;;;16.83;7.30;;;;;;;29.85;90.63;101163.38;143714;570;48002;-67
2023/10/16 11:15:32;;;;;;;13.90;7.53;;;;;;;29.77;91.94;101164.97;143724;607;46006;-68
2023/10/16 11:18:05;;;;;;;10.18;7.00;;;;;;;29.59;89.70;101175.13;143717;580;47007;-70
2023/10/16 11:20:36;;;;;;;10.10;6.62;;;;;;;29.63;91.56;101170.59;143720;663;46010;-67
2023/10/16 11:23:25;;;;;;;15.38;9.45;;;;;;;29.78;90.69;101174.91;143723;694;47004;-68
2023/10/16 11:25:54;;;;;;;14.02;6.22;;;;;;;29.74;89.45;101173.91;143725;573;47006;-68
2023/10/16 11:28:35;;;;;;;11.93;6.35;;;;;;;29.85;87.76;101174.44;143721;579;50000;-72
2023/10/16 11:31:09;;;;;;;12.07;7.68;;;;;;;29.66;90.93;101169.13;143723;661;46010;-69
2023/10/16 11:33:46;;;;;;;11.80;6.40;;;;;;;29.60;88.71;101174.00;143723;611;47002;-69
2023/10/16 11:36:13;;;;;;;18.08;10.95;;;;;;;29.62;91.67;101168.16;143723;575;46006;-68
2023/10/16 11:38:43;;;;;;;13.80;6.82;;;;;;;29.78;88.81;101168.53;143726;608;47002;-70
2023/10/16 11:41:16;;;;;;;13.13;9.07;;;;;;;29.67;89.90;101181.03;143722;583;46011;-71
2023/10/16 11:43:51;;;;;;;17.17;9.47;;;;;;;29.67;90.84;101172.72;143723;588;47002;-69
2023/10/16 11:46:39;;;;;;;10.70;7.60;;;;;;;29.59;91.31;101175.13;143719;567;48004;-69
2023/10/16 11:52:09;;;;;;;12.50;6.95;;;;;;;29.31;88.98;101180.81;143724;592;46020;-69
2023/10/16 11:54:40;;;;;;;13.87;8.87;;;;;;;29.17;89.81;101180.06;143721;573;47004;-69
2023/10/16 11:57:06;;;;;;;14.35;9.95;;;;;;;29.01;92.20;101176.81;143718;595;48006;-70
2023/10/16 11:59:33;;;;;;;14.27;7.07;;;;;;;28.94;92.82;101185.56;143725;572;46006;-68
2023/10/16 12:01:59;;;;;;;18.42;7.55;;;;;;;28.96;92.07;101185.25;143723;567;48015;-70
2023/10/16 12:04:29;;;;;;;15.50;7.87;;;;;;;29.01;92.51;101191.50;143717;644;47004;-70
2023/10/16 12:06:57;;;;;;;15.25;7.03;;;;;;;28.82;91.47;101188.06;143722;584;46006;-70
2023/10/16 12:09:25;;;;;;;12.60;6.55;;;;;;;28.69;92.14;101198.00;143724;568;47002;-72
2023/10/16 12:11:54;;;;;;;13.32;6.60;;;;;;;28.58;91.24;101195.47;143721;589;46011;-70
2023/10/16 12:14:22;;;;;;;14.35;8.43;;;;;;;28.32;93.23;101202.63;143722;596;46012;-70
2023/10/16 12:16:48;;;;;;;10.95;6.30;;;;;;;28.25;94.07;101200.28;143720;609;46007;-70
2023/10/16 12:19:16;;;;;;;16.40;7.90;;;;;;;28.43;93.63;101201.28;143729;595;46010;-69
2023/10/16 12:21:50;;;;;;;16.70;7.65;;;;;;;28.46;94.08;101206.22;143726;597;47004;-69
2023/10/16 12:24:16;;;;;;;13.62;7.20;;;;;;;28.49;94.86;101200.06;143723;610;46022;-69
2023/10/16 12:26:43;;;;;;;16.87;7.45;;;;;;;28.60;95.21;101204.25;143721;574;47006;-70
2023/10/16 12:29:11;;;;;;;11.43;9.30;;;;;;;28.74;94.69;101203.44;143724;574;46004;-69
2023/10/16 12:31:40;;;;;;;13.00;6.78;;;;;;;28.66;94.56;101206.91;143723;590;47010;-68
2023/10/16 12:34:11;;;;;;;15.90;6.70;;;;;;;28.60;94.99;101215.28;143724;648;46012;-68
2023/10/16 12:36:38;;;;;;;15.13;9.98;;;;;;;28.58;96.09;101209.28;143726;606;46006;-67
2023/10/16 12:39:13;;;;;;;11.30;6.43;;;;;;;28.37;94.00;101214.41;143725;674;46011;-67
2023/10/16 12:41:43;;;;;;;13.93;7.05;;;;;;;28.20;96.16;101220.56;143720;599;47010;-71
2023/10/16 12:44:13;;;;;;;14.60;6.65;;;;;;;28.03;97.14;101214.78;143722;591;47004;-68
2023/10/16 12:46:43;;;;;;;13.02;7.22;;;;;;;28.03;96.63;101217.56;143720;568;47007;-67
2023/10/16 12:49:09;;;;;;;11.00;6.22;;;;;;;28.01;98.21;101215.06;143722;595;47002;-68
2023/10/16 12:51:36;;;;;;;10.60;7.72;;;;;;;28.08;98.79;101218.25;143726;578;47008;-69
2023/10/16 12:54:06;;;;;;;10.77;6.85;;;;;;;27.89;98.11;101220.28;143723;580;46894;-68
2023/10/16 12:56:35;;;;;;;11.90;6.82;;;;;;;27.88;97.91;101224.16;143722;567;47922;-71
2023/10/16 12:59:03;;;;;;;12.88;9.18;;;;;;;27.82;100.00;101221.50;143724;602;47002;-72
2023/10/16 13:01:29;;;;;;;11.98;6.75;;;;;;;27.71;99.40;101231.09;143722;645;47010;-70
2023/10/16 13:03:59;;;;;;;13.75;6.55;;;;;;;27.57;99.39;101235.75;143724;618;47004;-71
2023/10/16 13:06:30;;;;;;;14.65;7.12;;;;;;;27.45;99.87;101237.00;143723;615;47006;-70
2023/10/16 13:08:57;;;;;;;13.60;7.37;;;;;;;27.42;100.00;101240.37;143725;573;46018;-70
2023/10/16 13:11:24;;;;;;;11.70;6.68;;;;;;;27.42;100.00;101245.88;143722;599;47011;-69
2023/10/16 13:13:51;;;;;;;8.93;6.45;;;;;;;27.54;100.00;101253.72;143721;592;47004;-70
2023/10/16 13:16:24;;;;;;;10.52;6.15;;;;;;;27.51;100.00;101249.63;143719;611;47007;-69
2023/10/16 13:18:57;;;;;;;14.87;9.63;;;;;;;27.36;100.00;101264.44;143725;595;46010;-71
2023/10/16 13:21:33;;;;;;;14.70;7.65;;;;;;;27.28;100.00;101261.53;143723;643;46008;-71
2023/10/16 13:24:16;;;;;;;10.30;6.35;;;;;;;27.33;100.00;101254.03;143725;631;46009;-71
2023/10/16 13:26:42;;;;;;;10.50;9.15;;;;;;;27.33;100.00;101261.47;143721;631;47006;-71
2023/10/16 13:29:12;;;;;;;13.48;10.07;;;;;;;27.35;100.00;101256.47;143729;591;46004;-70
2023/10/16 13:31:41;;;;;;;11.20;8.75;;;;;;;27.43;100.00;101260.50;143728;609;46005;-67
2023/10/16 13:34:13;;;;;;;9.48;6.00;;;;;;;27.48;100.00;101264.00;143723;607;46004;-67
2023/10/16 13:36:56;;;;;;;8.90;5.82;;;;;;;27.53;100.00;101271.41;143724;575;47006;-71
2023/10/16 13:39:26;;;;;;;12.32;7.75;;;;;;;27.47;100.00;101275.34;143725;577;47002;-70
2023/10/16 13:41:58;;;;;;;8.93;5.70;;;;;;;27.24;100.00;101264.91;143721;609;47004;-70
2023/10/16 13:44:25;;;;;;;10.68;5.57;;;;;;;27.28;100.00;101267.87;143723;648;46008;-70
2023/10/16 13:46:52;;;;;;;19.58;8.90;;;;;;;27.39;100.00;101276.84;143726;582;46009;-70
2023/10/16 13:49:20;;;;;;;11.38;6.53;;;;;;;27.28;100.00;101278.09;143727;689;46006;-70
2023/10/16 13:51:47;;;;;;;12.57;6.43;;;;;;;27.30;100.00;101276.69;143722;572;46012;-71
2023/10/16 13:54:14;;;;;;;8.98;6.50;;;;;;;27.31;99.38;101269.22;143718;647;47006;-71
2023/10/16 13:56:48;;;;;;;10.30;6.90;;;;;;;27.17;99.64;101277.44;143726;646;46008;-71
2023/10/16 13:59:15;;;;;;;16.50;7.10;;;;;;;27.22;99.52;101278.19;143726;655;46010;-72
2023/10/16 14:01:45;;;;;;;9.18;5.53;;;;;;;27.12;99.98;101292.09;143716;599;47006;-70
2023/10/16 14:04:16;;;;;;;11.95;6.10;;;;;;;27.03;100.00;101286.44;143724;572;46013;-69
2023/10/16 14:06:52;;;;;;;7.35;5.30;;;;;;;26.97;98.82;101292.31;143721;655;46920;-70
2023/10/16 14:09:27;;;;;;;11.70;5.62;;;;;;;27.00;97.62;101298.06;143727;718;46006;-70
2023/10/16 14:11:58;;;;;;;12.07;6.10;;;;;;;27.05;98.29;101299.94;143724;569;47004;-69
2023/10/16 14:14:26;;;;;;;9.43;6.40;;;;;;;27.03;94.66;101299.41;143721;657;46930;-73
2023/10/16 14:17:16;;;;;;;12.77;5.35;;;;;;;27.07;96.46;101304.03;143722;651;46016;-70
2023/10/16 14:19:47;;;;;;;8.48;5.90;;;;;;;27.15;98.54;101298.97;143728;599;46006;-72
2023/10/16 14:22:15;;;;;;;11.20;4.93;;;;;;;27.06;93.83;101305.13;143720;693;47012;-70
2023/10/16 14:24:45;;;;;;;12.80;8.07;;;;;;;27.00;100.00;101311.84;143721;579;47011;-70
2023/10/16 14:27:24;;;;;;;12.68;7.40;;;;;;;27.11;97.33;101311.72;143724;654;46010;-70
2023/10/16 14:29:58;;;;;;;8.73;5.75;;;;;;;27.07;91.67;101309.53;143725;702;46010;-70
2023/10/16 14:32:26;;;;;;;11.32;5.60;;;;;;;27.07;92.45;101308.72;143726;653;46013;-71
2023/10/16 14:34:52;;;;;;;13.23;7.18;;;;;;;27.12;98.89;101316.09;143721;592;47006;-71
2023/10/16 14:37:19;;;;;;;13.38;6.18;;;;;;;27.14;96.79;101313.88;143720;594;47004;-73
2023/10/16 14:39:46;;;;;;;14.05;6.30;;;;;;;27.21;88.46;101322.59;143727;588;46007;-71
2023/10/16 14:42:12;;;;;;;9.70;4.45;;;;;;;27.20;82.80;101324.53;143723;612;46017;-72
2023/10/16 14:44:41;;;;;;;6.75;4.03;;;;;;;27.23;82.10;101336.91;143724;586;46012;-73
2023/10/16 14:47:09;;;;;;;8.88;4.40;;;;;;;27.15;84.62;101340.34;143723;637;46009;-72
2023/10/16 14:49:35;;;;;;;10.02;7.53;;;;;;;26.97;88.02;101345.53;143725;573;47004;-71
2023/10/16 14:52:02;;;;;;;11.65;5.30;;;;;;;26.86;76.06;101346.75;143723;588;46012;-70
2023/10/16 14:54:29;;;;;;;15.60;5.90;;;;;;;26.78;75.98;101339.91;143723;653;46013;-71
2023/10/16 14:56:59;;;;;;;10.68;3.97;;;;;;;26.82;69.01;101345.72;143724;704;46008;-71
2023/10/16 14:59:32;;;;;;;5.80;3.00;;;;;;;26.87;65.36;101351.97;143727;566;46004;-72
2023/10/16 15:02:00;;;;;;;7.82;4.12;;;;;;;26.90;75.54;101356.06;143724;692;47008;-71
2023/10/16 15:04:27;;;;;;;7.28;3.53;;;;;;;26.94;69.80;101366.22;143724;686;47004;-72
2023/10/16 15:06:53;;;;;;;6.15;2.70;;;;;;;26.84;65.74;101362.75;143727;628;46008;-72
2023/10/16 15:09:19;;;;;;;7.43;3.55;;;;;;;26.74;65.34;101371.94;143729;594;46008;-71
2023/10/16 15:11:46;;;;;;;7.65;3.95;;;;;;;26.76;66.63;101364.19;143721;613;46020;-72
2023/10/16 15:14:13;;;;;;;4.82;2.75;;;;;;;26.72;61.89;101372.22;143723;676;46006;-71
2023/10/16 15:16:39;;;;;;;5.28;3.50;;;;;;;26.76;65.01;101376.03;143726;737;46004;-71
2023/10/16 15:19:10;;;;;;;8.10;3.03;;;;;;;26.81;64.74;101375.19;143722;568;47006;-71
2023/10/16 15:21:38;;;;;;;10.85;2.95;;;;;;;26.70;60.35;101379.97;143724;589;46012;-69
2023/10/16 15:24:08;;;;;;;9.80;3.30;;;;;;;26.66;59.12;101386.34;143722;739;47004;-72
2023/10/16 15:26:35;;;;;;;11.10;2.97;;;;;;;26.54;58.16;101384.00;143718;659;48008;-70
2023/10/16 15:29:03;;;;;;;4.00;2.92;;;;;;;26.52;59.27;101386.22;143726;696;46010;-70